sensor_id;sensor_type;location;lat;lon;timestamp;P1;durP1;ratioP1;P2;durP2;ratioP2
1154;SDS011;566;48.414;9.118;2023-04-06T00:01:37;20.25;;;12.73;;
1154;SDS011;566;48.414;9.118;2023-04-06T00:04:03;21.45;;;11.93;;
1154;SDS011;566;48.414;9.118;2023-04-06T00:06:28;20.80;;;13.43;;
1154;SDS011;566;48.414;9.118;2023-04-06T00:08:55;19.58;;;11.32;;
1154;SDS011;566;48.414;9.118;2023-04-06T00:11:20;21.33;;;13.15;;
1154;SDS011;566;48.414;9.118;2023-04-06T00:13:46;21.50;;;12.95;;
1154;SDS011;566;48.414;9.118;2023-04-06T00:16:12;19.30;;;12.73;;
1154;SDS011;566;48.414;9.118;2023-04-06T00:18:40;18.25;;;12.13;;
1154;SDS011;566;48.414;9.118;2023-04-06T00:21:11;18.30;;;11.68;;
1154;SDS011;566;48.414;9.118;2023-04-06T00:23:38;19.08;;;11.70;;
1154;SDS011;566;48.414;9.118;2023-04-06T00:26:03;19.08;;;12.00;;
1154;SDS011;566;48.414;9.118;2023-04-06T00:28:29;16.45;;;11.80;;
1154;SDS011;566;48.414;9.118;2023-04-06T00:30:55;20.38;;;13.27;;
1154;SDS011;566;48.414;9.118;2023-04-06T00:33:21;21.73;;;11.80;;
1154;SDS011;566;48.414;9.118;2023-04-06T00:35:47;17.30;;;11.85;;
1154;SDS011;566;48.414;9.118;2023-04-06T00:38:13;17.17;;;11.73;;
1154;SDS011;566;48.414;9.118;2023-04-06T00:40:40;21.20;;;13.27;;
1154;SDS011;566;48.414;9.118;2023-04-06T00:43:06;17.42;;;11.52;;
1154;SDS011;566;48.414;9.118;2023-04-06T00:45:32;17.83;;;11.20;;
1154;SDS011;566;48.414;9.118;2023-04-06T00:47:58;17.25;;;11.60;;
1154;SDS011;566;48.414;9.118;2023-04-06T00:50:24;18.45;;;11.65;;
1154;SDS011;566;48.414;9.118;2023-04-06T00:52:53;16.70;;;11.02;;
1154;SDS011;566;48.414;9.118;2023-04-06T00:55:19;16.52;;;10.45;;
1154;SDS011;566;48.414;9.118;2023-04-06T00:57:48;18.10;;;11.43;;
1154;SDS011;566;48.414;9.118;2023-04-06T01:00:15;18.45;;;11.45;;
1154;SDS011;566;48.414;9.118;2023-04-06T01:02:41;18.58;;;11.27;;
1154;SDS011;566;48.414;9.118;2023-04-06T01:05:07;15.63;;;10.80;;
1154;SDS011;566;48.414;9.118;2023-04-06T01:07:33;16.52;;;11.45;;
1154;SDS011;566;48.414;9.118;2023-04-06T01:09:58;16.13;;;10.73;;
1154;SDS011;566;48.414;9.118;2023-04-06T01:12:24;19.35;;;11.52;;
1154;SDS011;566;48.414;9.118;2023-04-06T01:14:50;18.55;;;11.60;;
1154;SDS011;566;48.414;9.118;2023-04-06T01:17:16;18.75;;;11.45;;
1154;SDS011;566;48.414;9.118;2023-04-06T01:19:41;16.65;;;11.13;;
1154;SDS011;566;48.414;9.118;2023-04-06T01:22:07;17.33;;;11.80;;
1154;SDS011;566;48.414;9.118;2023-04-06T01:24:33;18.42;;;11.63;;
1154;SDS011;566;48.414;9.118;2023-04-06T01:26:58;17.40;;;11.43;;
1154;SDS011;566;48.414;9.118;2023-04-06T01:29:25;15.38;;;11.13;;
1154;SDS011;566;48.414;9.118;2023-04-06T01:31:51;18.02;;;11.55;;
1154;SDS011;566;48.414;9.118;2023-04-06T01:34:16;19.05;;;11.55;;
1154;SDS011;566;48.414;9.118;2023-04-06T01:36:42;17.88;;;11.93;;
1154;SDS011;566;48.414;9.118;2023-04-06T01:39:08;19.15;;;12.10;;
1154;SDS011;566;48.414;9.118;2023-04-06T01:41:33;18.95;;;12.90;;
1154;SDS011;566;48.414;9.118;2023-04-06T01:43:59;18.55;;;12.60;;
1154;SDS011;566;48.414;9.118;2023-04-06T01:46:25;18.55;;;12.68;;
1154;SDS011;566;48.414;9.118;2023-04-06T01:48:51;20.65;;;13.40;;
1154;SDS011;566;48.414;9.118;2023-04-06T01:51:16;18.90;;;12.05;;
1154;SDS011;566;48.414;9.118;2023-04-06T01:53:42;18.67;;;11.18;;
1154;SDS011;566;48.414;9.118;2023-04-06T01:56:07;18.38;;;11.45;;
1154;SDS011;566;48.414;9.118;2023-04-06T01:58:33;15.52;;;10.55;;
1154;SDS011;566;48.414;9.118;2023-04-06T02:00:59;17.23;;;11.10;;
1154;SDS011;566;48.414;9.118;2023-04-06T02:03:25;16.45;;;11.05;;
1154;SDS011;566;48.414;9.118;2023-04-06T02:05:50;17.15;;;11.90;;
1154;SDS011;566;48.414;9.118;2023-04-06T02:08:16;15.88;;;11.20;;
1154;SDS011;566;48.414;9.118;2023-04-06T02:10:41;18.20;;;11.60;;
1154;SDS011;566;48.414;9.118;2023-04-06T02:13:07;17.85;;;11.68;;
1154;SDS011;566;48.414;9.118;2023-04-06T02:15:32;17.77;;;10.75;;
1154;SDS011;566;48.414;9.118;2023-04-06T02:17:58;20.13;;;11.40;;
1154;SDS011;566;48.414;9.118;2023-04-06T02:20:24;19.45;;;11.20;;
1154;SDS011;566;48.414;9.118;2023-04-06T02:22:50;19.67;;;11.15;;
1154;SDS011;566;48.414;9.118;2023-04-06T02:25:16;18.52;;;10.88;;
1154;SDS011;566;48.414;9.118;2023-04-06T02:27:41;18.75;;;10.82;;
1154;SDS011;566;48.414;9.118;2023-04-06T02:30:07;15.00;;;10.48;;
1154;SDS011;566;48.414;9.118;2023-04-06T02:32:33;17.77;;;11.07;;
1154;SDS011;566;48.414;9.118;2023-04-06T02:34:59;17.13;;;11.38;;
1154;SDS011;566;48.414;9.118;2023-04-06T02:37:25;19.30;;;11.02;;
1154;SDS011;566;48.414;9.118;2023-04-06T02:39:50;16.65;;;11.10;;
1154;SDS011;566;48.414;9.118;2023-04-06T02:42:16;16.98;;;11.40;;
1154;SDS011;566;48.414;9.118;2023-04-06T02:44:42;16.42;;;10.35;;
1154;SDS011;566;48.414;9.118;2023-04-06T02:47:07;19.67;;;11.45;;
1154;SDS011;566;48.414;9.118;2023-04-06T02:49:33;19.70;;;11.23;;
1154;SDS011;566;48.414;9.118;2023-04-06T02:51:59;18.67;;;11.00;;
1154;SDS011;566;48.414;9.118;2023-04-06T02:54:25;16.33;;;10.50;;
1154;SDS011;566;48.414;9.118;2023-04-06T02:56:50;16.13;;;10.73;;
1154;SDS011;566;48.414;9.118;2023-04-06T02:59:18;19.88;;;11.95;;
1154;SDS011;566;48.414;9.118;2023-04-06T03:01:45;19.60;;;11.07;;
1154;SDS011;566;48.414;9.118;2023-04-06T03:04:13;18.63;;;11.75;;
1154;SDS011;566;48.414;9.118;2023-04-06T03:06:39;17.77;;;10.85;;
1154;SDS011;566;48.414;9.118;2023-04-06T03:09:05;18.02;;;11.45;;
1154;SDS011;566;48.414;9.118;2023-04-06T03:11:31;15.90;;;10.52;;
1154;SDS011;566;48.414;9.118;2023-04-06T03:13:56;18.90;;;11.48;;
1154;SDS011;566;48.414;9.118;2023-04-06T03:16:22;17.63;;;10.48;;
1154;SDS011;566;48.414;9.118;2023-04-06T03:18:47;17.65;;;11.23;;
1154;SDS011;566;48.414;9.118;2023-04-06T03:21:13;18.48;;;12.05;;
1154;SDS011;566;48.414;9.118;2023-04-06T03:23:42;18.65;;;11.48;;
1154;SDS011;566;48.414;9.118;2023-04-06T03:26:08;18.15;;;10.77;;
1154;SDS011;566;48.414;9.118;2023-04-06T03:28:33;16.15;;;10.82;;
1154;SDS011;566;48.414;9.118;2023-04-06T03:30:59;21.42;;;12.07;;
1154;SDS011;566;48.414;9.118;2023-04-06T03:33:26;18.52;;;11.65;;
1154;SDS011;566;48.414;9.118;2023-04-06T03:35:52;18.40;;;11.25;;
1154;SDS011;566;48.414;9.118;2023-04-06T03:38:18;17.40;;;11.00;;
1154;SDS011;566;48.414;9.118;2023-04-06T03:40:44;18.75;;;10.93;;
1154;SDS011;566;48.414;9.118;2023-04-06T03:43:09;17.20;;;10.60;;
1154;SDS011;566;48.414;9.118;2023-04-06T03:45:35;19.15;;;11.95;;
1154;SDS011;566;48.414;9.118;2023-04-06T03:48:01;17.90;;;11.45;;
1154;SDS011;566;48.414;9.118;2023-04-06T03:50:26;18.42;;;11.90;;
1154;SDS011;566;48.414;9.118;2023-04-06T03:52:52;19.52;;;11.55;;
1154;SDS011;566;48.414;9.118;2023-04-06T03:55:20;18.90;;;11.38;;
1154;SDS011;566;48.414;9.118;2023-04-06T03:57:46;19.52;;;11.77;;
1154;SDS011;566;48.414;9.118;2023-04-06T04:00:11;19.70;;;11.20;;
1154;SDS011;566;48.414;9.118;2023-04-06T04:02:37;19.10;;;12.05;;
1154;SDS011;566;48.414;9.118;2023-04-06T04:05:03;20.33;;;12.40;;
1154;SDS011;566;48.414;9.118;2023-04-06T04:07:29;20.20;;;12.00;;
1154;SDS011;566;48.414;9.118;2023-04-06T04:09:55;21.35;;;11.77;;
1154;SDS011;566;48.414;9.118;2023-04-06T04:12:20;18.83;;;12.20;;
1154;SDS011;566;48.414;9.118;2023-04-06T04:14:46;22.42;;;13.32;;
1154;SDS011;566;48.414;9.118;2023-04-06T04:17:12;19.20;;;11.80;;
1154;SDS011;566;48.414;9.118;2023-04-06T04:19:37;19.77;;;12.35;;
1154;SDS011;566;48.414;9.118;2023-04-06T04:22:03;20.67;;;12.10;;
1154;SDS011;566;48.414;9.118;2023-04-06T04:24:30;21.23;;;12.32;;
1154;SDS011;566;48.414;9.118;2023-04-06T04:26:55;23.52;;;11.70;;
1154;SDS011;566;48.414;9.118;2023-04-06T04:29:21;18.48;;;11.68;;
1154;SDS011;566;48.414;9.118;2023-04-06T04:31:47;18.63;;;11.43;;
1154;SDS011;566;48.414;9.118;2023-04-06T04:34:14;19.38;;;11.38;;
1154;SDS011;566;48.414;9.118;2023-04-06T04:36:40;19.85;;;11.32;;
1154;SDS011;566;48.414;9.118;2023-04-06T04:39:07;20.45;;;12.52;;
1154;SDS011;566;48.414;9.118;2023-04-06T04:41:32;22.75;;;14.73;;
1154;SDS011;566;48.414;9.118;2023-04-06T04:43:58;19.50;;;12.05;;
1154;SDS011;566;48.414;9.118;2023-04-06T04:46:23;20.50;;;12.15;;
1154;SDS011;566;48.414;9.118;2023-04-06T04:48:49;20.90;;;13.07;;
1154;SDS011;566;48.414;9.118;2023-04-06T04:51:15;23.05;;;15.25;;
1154;SDS011;566;48.414;9.118;2023-04-06T04:53:40;31.50;;;18.17;;
1154;SDS011;566;48.414;9.118;2023-04-06T04:56:06;26.92;;;16.08;;
1154;SDS011;566;48.414;9.118;2023-04-06T04:58:31;35.88;;;17.73;;
1154;SDS011;566;48.414;9.118;2023-04-06T05:00:57;27.25;;;16.20;;
1154;SDS011;566;48.414;9.118;2023-04-06T05:03:23;22.02;;;12.75;;
1154;SDS011;566;48.414;9.118;2023-04-06T05:05:50;24.90;;;14.05;;
1154;SDS011;566;48.414;9.118;2023-04-06T05:08:16;43.67;;;25.00;;
1154;SDS011;566;48.414;9.118;2023-04-06T05:10:41;60.47;;;32.75;;
1154;SDS011;566;48.414;9.118;2023-04-06T05:13:07;26.52;;;16.08;;
1154;SDS011;566;48.414;9.118;2023-04-06T05:15:33;34.83;;;21.60;;
1154;SDS011;566;48.414;9.118;2023-04-06T05:18:05;90.82;;;53.67;;
1154;SDS011;566;48.414;9.118;2023-04-06T05:20:40;42.20;;;24.35;;
1154;SDS011;566;48.414;9.118;2023-04-06T05:23:07;41.95;;;27.90;;
1154;SDS011;566;48.414;9.118;2023-04-06T05:25:32;32.20;;;20.15;;
1154;SDS011;566;48.414;9.118;2023-04-06T05:27:59;31.60;;;21.45;;
1154;SDS011;566;48.414;9.118;2023-04-06T05:30:26;27.92;;;19.08;;
1154;SDS011;566;48.414;9.118;2023-04-06T05:32:53;29.58;;;19.75;;
1154;SDS011;566;48.414;9.118;2023-04-06T05:35:19;30.67;;;19.30;;
1154;SDS011;566;48.414;9.118;2023-04-06T05:37:45;31.75;;;18.35;;
1154;SDS011;566;48.414;9.118;2023-04-06T05:40:11;26.50;;;16.85;;
1154;SDS011;566;48.414;9.118;2023-04-06T05:42:40;25.38;;;16.63;;
1154;SDS011;566;48.414;9.118;2023-04-06T05:45:07;21.05;;;15.10;;
1154;SDS011;566;48.414;9.118;2023-04-06T05:47:34;24.45;;;15.65;;
1154;SDS011;566;48.414;9.118;2023-04-06T05:50:00;26.98;;;16.73;;
1154;SDS011;566;48.414;9.118;2023-04-06T05:52:25;25.00;;;15.43;;
1154;SDS011;566;48.414;9.118;2023-04-06T05:54:51;23.35;;;14.82;;
1154;SDS011;566;48.414;9.118;2023-04-06T05:57:17;25.50;;;15.73;;
1154;SDS011;566;48.414;9.118;2023-04-06T05:59:43;23.40;;;15.18;;
1154;SDS011;566;48.414;9.118;2023-04-06T06:02:09;21.85;;;13.93;;
1154;SDS011;566;48.414;9.118;2023-04-06T06:04:34;20.77;;;14.10;;
1154;SDS011;566;48.414;9.118;2023-04-06T06:07:00;20.55;;;13.32;;
1154;SDS011;566;48.414;9.118;2023-04-06T06:09:26;21.90;;;12.95;;
1154;SDS011;566;48.414;9.118;2023-04-06T06:11:54;18.17;;;13.25;;
1154;SDS011;566;48.414;9.118;2023-04-06T06:14:20;15.65;;;10.60;;
1154;SDS011;566;48.414;9.118;2023-04-06T06:16:46;130.80;;;61.45;;
1154;SDS011;566;48.414;9.118;2023-04-06T06:19:12;38.28;;;25.02;;
1154;SDS011;566;48.414;9.118;2023-04-06T06:21:37;36.00;;;22.50;;
1154;SDS011;566;48.414;9.118;2023-04-06T06:24:03;29.35;;;20.08;;
1154;SDS011;566;48.414;9.118;2023-04-06T06:26:29;29.52;;;18.88;;
1154;SDS011;566;48.414;9.118;2023-04-06T06:28:54;36.15;;;21.48;;
1154;SDS011;566;48.414;9.118;2023-04-06T06:31:20;32.25;;;20.45;;
1154;SDS011;566;48.414;9.118;2023-04-06T06:33:47;101.90;;;55.53;;
1154;SDS011;566;48.414;9.118;2023-04-06T06:36:15;73.68;;;42.47;;
1154;SDS011;566;48.414;9.118;2023-04-06T06:38:42;78.82;;;44.97;;
1154;SDS011;566;48.414;9.118;2023-04-06T06:41:07;53.58;;;33.78;;
1154;SDS011;566;48.414;9.118;2023-04-06T06:43:33;51.00;;;31.15;;
1154;SDS011;566;48.414;9.118;2023-04-06T06:45:58;29.55;;;21.25;;
1154;SDS011;566;48.414;9.118;2023-04-06T06:48:24;29.23;;;17.55;;
1154;SDS011;566;48.414;9.118;2023-04-06T06:50:50;34.45;;;18.67;;
1154;SDS011;566;48.414;9.118;2023-04-06T06:53:18;33.47;;;22.08;;
1154;SDS011;566;48.414;9.118;2023-04-06T06:55:45;31.08;;;19.95;;
1154;SDS011;566;48.414;9.118;2023-04-06T06:58:10;29.52;;;17.92;;
1154;SDS011;566;48.414;9.118;2023-04-06T07:00:36;27.33;;;18.08;;
1154;SDS011;566;48.414;9.118;2023-04-06T07:03:01;26.35;;;16.23;;
1154;SDS011;566;48.414;9.118;2023-04-06T07:05:27;23.30;;;15.60;;
1154;SDS011;566;48.414;9.118;2023-04-06T07:07:53;25.08;;;15.65;;
1154;SDS011;566;48.414;9.118;2023-04-06T07:10:19;25.58;;;15.82;;
1154;SDS011;566;48.414;9.118;2023-04-06T07:12:45;25.45;;;16.02;;
1154;SDS011;566;48.414;9.118;2023-04-06T07:15:11;23.58;;;15.15;;
1154;SDS011;566;48.414;9.118;2023-04-06T07:17:39;24.33;;;14.02;;
1154;SDS011;566;48.414;9.118;2023-04-06T07:20:10;19.47;;;13.87;;
1154;SDS011;566;48.414;9.118;2023-04-06T07:22:35;20.95;;;14.45;;
1154;SDS011;566;48.414;9.118;2023-04-06T07:25:01;20.48;;;12.82;;
1154;SDS011;566;48.414;9.118;2023-04-06T07:27:27;20.05;;;14.48;;
1154;SDS011;566;48.414;9.118;2023-04-06T07:29:52;23.38;;;16.17;;
1154;SDS011;566;48.414;9.118;2023-04-06T07:32:18;22.45;;;16.00;;
1154;SDS011;566;48.414;9.118;2023-04-06T07:34:43;21.13;;;14.43;;
1154;SDS011;566;48.414;9.118;2023-04-06T07:37:12;21.27;;;13.93;;
1154;SDS011;566;48.414;9.118;2023-04-06T07:39:38;19.00;;;11.23;;
1154;SDS011;566;48.414;9.118;2023-04-06T07:42:03;19.30;;;12.52;;
1154;SDS011;566;48.414;9.118;2023-04-06T07:44:29;18.88;;;11.55;;
1154;SDS011;566;48.414;9.118;2023-04-06T07:46:55;19.48;;;12.18;;
1154;SDS011;566;48.414;9.118;2023-04-06T07:49:20;18.27;;;11.52;;
1154;SDS011;566;48.414;9.118;2023-04-06T07:51:47;16.15;;;10.23;;
1154;SDS011;566;48.414;9.118;2023-04-06T07:54:13;17.38;;;11.57;;
1154;SDS011;566;48.414;9.118;2023-04-06T07:56:38;17.08;;;9.35;;
1154;SDS011;566;48.414;9.118;2023-04-06T07:59:04;16.30;;;10.57;;
1154;SDS011;566;48.414;9.118;2023-04-06T08:01:30;16.23;;;8.55;;
1154;SDS011;566;48.414;9.118;2023-04-06T08:03:56;14.80;;;9.50;;
1154;SDS011;566;48.414;9.118;2023-04-06T08:06:22;16.27;;;9.50;;
1154;SDS011;566;48.414;9.118;2023-04-06T08:08:47;17.73;;;8.98;;
1154;SDS011;566;48.414;9.118;2023-04-06T08:11:13;12.45;;;8.40;;
1154;SDS011;566;48.414;9.118;2023-04-06T08:13:38;13.38;;;8.10;;
1154;SDS011;566;48.414;9.118;2023-04-06T08:16:04;11.20;;;7.68;;
1154;SDS011;566;48.414;9.118;2023-04-06T08:18:30;13.80;;;7.53;;
1154;SDS011;566;48.414;9.118;2023-04-06T08:20:55;15.02;;;8.10;;
1154;SDS011;566;48.414;9.118;2023-04-06T08:23:21;13.18;;;7.68;;
1154;SDS011;566;48.414;9.118;2023-04-06T08:25:47;12.52;;;8.20;;
1154;SDS011;566;48.414;9.118;2023-04-06T08:28:12;14.38;;;8.30;;
1154;SDS011;566;48.414;9.118;2023-04-06T08:30:41;13.48;;;7.90;;
1154;SDS011;566;48.414;9.118;2023-04-06T08:33:07;10.82;;;6.97;;
1154;SDS011;566;48.414;9.118;2023-04-06T08:35:34;12.52;;;7.78;;
1154;SDS011;566;48.414;9.118;2023-04-06T08:37:59;11.02;;;7.07;;
1154;SDS011;566;48.414;9.118;2023-04-06T08:40:25;16.73;;;8.07;;
1154;SDS011;566;48.414;9.118;2023-04-06T08:42:56;12.57;;;6.53;;
1154;SDS011;566;48.414;9.118;2023-04-06T08:45:28;13.73;;;7.70;;
1154;SDS011;566;48.414;9.118;2023-04-06T08:47:54;11.00;;;6.82;;
1154;SDS011;566;48.414;9.118;2023-04-06T08:50:22;13.02;;;7.68;;
1154;SDS011;566;48.414;9.118;2023-04-06T08:52:49;10.48;;;7.28;;
1154;SDS011;566;48.414;9.118;2023-04-06T08:55:18;10.23;;;6.65;;
1154;SDS011;566;48.414;9.118;2023-04-06T08:57:44;10.18;;;6.35;;
1154;SDS011;566;48.414;9.118;2023-04-06T09:00:13;10.20;;;6.40;;
1154;SDS011;566;48.414;9.118;2023-04-06T09:02:42;12.35;;;7.47;;
1154;SDS011;566;48.414;9.118;2023-04-06T09:05:08;10.82;;;6.55;;
1154;SDS011;566;48.414;9.118;2023-04-06T09:07:35;11.43;;;6.20;;
1154;SDS011;566;48.414;9.118;2023-04-06T09:10:02;8.85;;;5.70;;
1154;SDS011;566;48.414;9.118;2023-04-06T09:12:29;9.30;;;5.43;;
1154;SDS011;566;48.414;9.118;2023-04-06T09:14:56;8.07;;;4.75;;
1154;SDS011;566;48.414;9.118;2023-04-06T09:17:29;12.27;;;6.20;;
1154;SDS011;566;48.414;9.118;2023-04-06T09:19:57;9.35;;;5.60;;
1154;SDS011;566;48.414;9.118;2023-04-06T09:22:24;10.27;;;5.60;;
1154;SDS011;566;48.414;9.118;2023-04-06T09:24:52;9.25;;;5.20;;
1154;SDS011;566;48.414;9.118;2023-04-06T09:27:37;9.20;;;5.80;;
1154;SDS011;566;48.414;9.118;2023-04-06T09:30:04;12.38;;;6.45;;
1154;SDS011;566;48.414;9.118;2023-04-06T09:32:52;9.93;;;5.93;;
1154;SDS011;566;48.414;9.118;2023-04-06T09:35:19;9.85;;;5.97;;
1154;SDS011;566;48.414;9.118;2023-04-06T09:37:46;8.80;;;5.53;;
1154;SDS011;566;48.414;9.118;2023-04-06T09:40:14;10.70;;;5.97;;
1154;SDS011;566;48.414;9.118;2023-04-06T09:42:42;10.60;;;6.18;;
1154;SDS011;566;48.414;9.118;2023-04-06T09:45:11;11.23;;;6.72;;
1154;SDS011;566;48.414;9.118;2023-04-06T09:47:37;9.50;;;6.18;;
1154;SDS011;566;48.414;9.118;2023-04-06T09:50:05;11.27;;;6.40;;
1154;SDS011;566;48.414;9.118;2023-04-06T09:52:37;11.27;;;6.65;;
1154;SDS011;566;48.414;9.118;2023-04-06T09:55:15;10.30;;;5.70;;
1154;SDS011;566;48.414;9.118;2023-04-06T09:58:03;10.90;;;5.85;;
1154;SDS011;566;48.414;9.118;2023-04-06T10:00:31;9.05;;;5.63;;
1154;SDS011;566;48.414;9.118;2023-04-06T10:03:06;9.45;;;5.88;;
1154;SDS011;566;48.414;9.118;2023-04-06T10:08:09;8.70;;;5.35;;
1154;SDS011;566;48.414;9.118;2023-04-06T10:10:37;8.65;;;5.57;;
1154;SDS011;566;48.414;9.118;2023-04-06T10:13:06;10.82;;;6.18;;
1154;SDS011;566;48.414;9.118;2023-04-06T10:15:32;10.82;;;5.95;;
1154;SDS011;566;48.414;9.118;2023-04-06T10:17:59;11.40;;;6.20;;
1154;SDS011;566;48.414;9.118;2023-04-06T10:20:30;15.55;;;5.85;;
1154;SDS011;566;48.414;9.118;2023-04-06T10:25:51;11.48;;;5.63;;
1154;SDS011;566;48.414;9.118;2023-04-06T10:28:20;7.82;;;5.35;;
1154;SDS011;566;48.414;9.118;2023-04-06T10:30:46;9.05;;;5.40;;
1154;SDS011;566;48.414;9.118;2023-04-06T10:33:18;7.93;;;5.50;;
1154;SDS011;566;48.414;9.118;2023-04-06T10:35:46;9.48;;;5.70;;
1154;SDS011;566;48.414;9.118;2023-04-06T10:38:12;8.55;;;5.45;;
1154;SDS011;566;48.414;9.118;2023-04-06T10:40:44;9.52;;;5.95;;
1154;SDS011;566;48.414;9.118;2023-04-06T10:43:13;10.02;;;5.85;;
1154;SDS011;566;48.414;9.118;2023-04-06T10:45:52;11.50;;;6.93;;
1154;SDS011;566;48.414;9.118;2023-04-06T10:48:20;9.65;;;6.53;;
1154;SDS011;566;48.414;9.118;2023-04-06T10:50:48;11.25;;;6.47;;
1154;SDS011;566;48.414;9.118;2023-04-06T10:53:21;9.73;;;6.07;;
1154;SDS011;566;48.414;9.118;2023-04-06T10:55:52;11.43;;;6.43;;
1154;SDS011;566;48.414;9.118;2023-04-06T10:58:24;11.38;;;6.65;;
1154;SDS011;566;48.414;9.118;2023-04-06T11:00:52;10.98;;;6.82;;
1154;SDS011;566;48.414;9.118;2023-04-06T11:03:19;8.43;;;5.93;;
1154;SDS011;566;48.414;9.118;2023-04-06T11:05:45;11.57;;;6.30;;
1154;SDS011;566;48.414;9.118;2023-04-06T11:08:29;9.43;;;5.93;;
1154;SDS011;566;48.414;9.118;2023-04-06T11:11:07;10.35;;;6.03;;
1154;SDS011;566;48.414;9.118;2023-04-06T11:13:41;9.70;;;5.90;;
1154;SDS011;566;48.414;9.118;2023-04-06T11:16:17;11.05;;;6.28;;
1154;SDS011;566;48.414;9.118;2023-04-06T11:22:06;9.55;;;5.55;;
1154;SDS011;566;48.414;9.118;2023-04-06T11:26:48;9.05;;;5.18;;
1154;SDS011;566;48.414;9.118;2023-04-06T11:29:20;8.93;;;5.25;;
1154;SDS011;566;48.414;9.118;2023-04-06T11:32:05;8.02;;;5.05;;
1154;SDS011;566;48.414;9.118;2023-04-06T11:34:35;7.60;;;4.70;;
1154;SDS011;566;48.414;9.118;2023-04-06T11:37:03;9.55;;;4.90;;
1154;SDS011;566;48.414;9.118;2023-04-06T11:39:47;9.80;;;5.10;;
1154;SDS011;566;48.414;9.118;2023-04-06T11:44:55;9.18;;;4.75;;
1154;SDS011;566;48.414;9.118;2023-04-06T11:47:31;7.22;;;4.47;;
1154;SDS011;566;48.414;9.118;2023-04-06T11:52:34;7.93;;;4.70;;
1154;SDS011;566;48.414;9.118;2023-04-06T11:55:09;8.32;;;4.47;;
1154;SDS011;566;48.414;9.118;2023-04-06T11:57:42;11.18;;;5.28;;
1154;SDS011;566;48.414;9.118;2023-04-06T12:00:08;9.48;;;5.88;;
1154;SDS011;566;48.414;9.118;2023-04-06T12:02:36;7.63;;;4.85;;
1154;SDS011;566;48.414;9.118;2023-04-06T12:05:03;8.63;;;5.00;;
1154;SDS011;566;48.414;9.118;2023-04-06T12:07:30;6.85;;;4.45;;
1154;SDS011;566;48.414;9.118;2023-04-06T12:09:56;8.40;;;5.05;;
1154;SDS011;566;48.414;9.118;2023-04-06T12:12:22;6.50;;;4.05;;
1154;SDS011;566;48.414;9.118;2023-04-06T12:14:48;10.52;;;5.60;;
1154;SDS011;566;48.414;9.118;2023-04-06T12:17:14;13.85;;;6.45;;
1154;SDS011;566;48.414;9.118;2023-04-06T12:19:39;11.13;;;6.50;;
1154;SDS011;566;48.414;9.118;2023-04-06T12:22:05;9.23;;;5.97;;
1154;SDS011;566;48.414;9.118;2023-04-06T12:24:31;7.90;;;5.10;;
1154;SDS011;566;48.414;9.118;2023-04-06T12:26:56;9.43;;;5.10;;
1154;SDS011;566;48.414;9.118;2023-04-06T12:29:22;8.00;;;5.28;;
1154;SDS011;566;48.414;9.118;2023-04-06T12:31:49;9.98;;;6.10;;
1154;SDS011;566;48.414;9.118;2023-04-06T12:34:14;8.98;;;5.60;;
1154;SDS011;566;48.414;9.118;2023-04-06T12:36:40;8.57;;;5.07;;
1154;SDS011;566;48.414;9.118;2023-04-06T12:39:05;8.27;;;5.40;;
1154;SDS011;566;48.414;9.118;2023-04-06T12:41:31;8.27;;;5.43;;
1154;SDS011;566;48.414;9.118;2023-04-06T12:43:57;10.73;;;4.95;;
1154;SDS011;566;48.414;9.118;2023-04-06T12:46:24;9.90;;;5.25;;
1154;SDS011;566;48.414;9.118;2023-04-06T12:48:50;9.75;;;6.00;;
1154;SDS011;566;48.414;9.118;2023-04-06T12:51:18;9.48;;;6.10;;
1154;SDS011;566;48.414;9.118;2023-04-06T12:53:44;9.40;;;6.13;;
1154;SDS011;566;48.414;9.118;2023-04-06T12:56:14;10.68;;;6.47;;
1154;SDS011;566;48.414;9.118;2023-04-06T12:58:42;7.95;;;5.30;;
1154;SDS011;566;48.414;9.118;2023-04-06T13:01:08;9.90;;;5.13;;
1154;SDS011;566;48.414;9.118;2023-04-06T13:03:36;7.97;;;5.70;;
1154;SDS011;566;48.414;9.118;2023-04-06T13:06:02;10.15;;;5.68;;
1154;SDS011;566;48.414;9.118;2023-04-06T13:08:27;9.80;;;6.15;;
1154;SDS011;566;48.414;9.118;2023-04-06T13:10:53;13.90;;;6.55;;
1154;SDS011;566;48.414;9.118;2023-04-06T13:13:26;9.65;;;5.78;;
1154;SDS011;566;48.414;9.118;2023-04-06T13:15:53;8.97;;;5.53;;
1154;SDS011;566;48.414;9.118;2023-04-06T13:18:20;10.00;;;5.32;;
1154;SDS011;566;48.414;9.118;2023-04-06T13:20:47;10.13;;;6.20;;
1154;SDS011;566;48.414;9.118;2023-04-06T13:23:13;10.07;;;5.90;;
1154;SDS011;566;48.414;9.118;2023-04-06T13:25:39;10.10;;;5.43;;
1154;SDS011;566;48.414;9.118;2023-04-06T13:28:05;9.18;;;6.05;;
1154;SDS011;566;48.414;9.118;2023-04-06T13:30:30;8.75;;;5.97;;
1154;SDS011;566;48.414;9.118;2023-04-06T13:32:56;9.05;;;5.90;;
1154;SDS011;566;48.414;9.118;2023-04-06T13:35:22;9.65;;;5.95;;
1154;SDS011;566;48.414;9.118;2023-04-06T13:37:47;8.98;;;5.30;;
1154;SDS011;566;48.414;9.118;2023-04-06T13:40:13;9.65;;;5.38;;
1154;SDS011;566;48.414;9.118;2023-04-06T13:42:39;14.80;;;5.95;;
1154;SDS011;566;48.414;9.118;2023-04-06T13:45:06;7.55;;;4.80;;
1154;SDS011;566;48.414;9.118;2023-04-06T13:47:32;9.38;;;5.47;;
1154;SDS011;566;48.414;9.118;2023-04-06T13:49:58;9.88;;;4.60;;
1154;SDS011;566;48.414;9.118;2023-04-06T13:52:23;11.25;;;5.55;;
1154;SDS011;566;48.414;9.118;2023-04-06T13:54:49;7.75;;;4.88;;
1154;SDS011;566;48.414;9.118;2023-04-06T13:57:15;7.05;;;4.45;;
1154;SDS011;566;48.414;9.118;2023-04-06T13:59:41;9.05;;;5.30;;
1154;SDS011;566;48.414;9.118;2023-04-06T14:02:08;7.80;;;4.82;;
1154;SDS011;566;48.414;9.118;2023-04-06T14:04:34;9.48;;;4.57;;
1154;SDS011;566;48.414;9.118;2023-04-06T14:07:00;8.73;;;4.80;;
1154;SDS011;566;48.414;9.118;2023-04-06T14:09:27;8.02;;;5.05;;
1154;SDS011;566;48.414;9.118;2023-04-06T14:11:53;8.15;;;5.13;;
1154;SDS011;566;48.414;9.118;2023-04-06T14:14:19;9.02;;;5.10;;
1154;SDS011;566;48.414;9.118;2023-04-06T14:16:46;8.18;;;5.13;;
1154;SDS011;566;48.414;9.118;2023-04-06T14:19:12;9.55;;;5.15;;
1154;SDS011;566;48.414;9.118;2023-04-06T14:21:40;9.10;;;5.25;;
1154;SDS011;566;48.414;9.118;2023-04-06T14:24:07;8.75;;;5.20;;
1154;SDS011;566;48.414;9.118;2023-04-06T14:26:34;9.63;;;5.03;;
1154;SDS011;566;48.414;9.118;2023-04-06T14:29:00;7.88;;;4.70;;
1154;SDS011;566;48.414;9.118;2023-04-06T14:31:26;8.65;;;5.18;;
1154;SDS011;566;48.414;9.118;2023-04-06T14:33:52;8.15;;;4.85;;
1154;SDS011;566;48.414;9.118;2023-04-06T14:36:17;8.52;;;5.00;;
1154;SDS011;566;48.414;9.118;2023-04-06T14:38:43;7.45;;;4.53;;
1154;SDS011;566;48.414;9.118;2023-04-06T14:41:15;8.75;;;4.85;;
1154;SDS011;566;48.414;9.118;2023-04-06T14:43:41;8.65;;;5.03;;
1154;SDS011;566;48.414;9.118;2023-04-06T14:46:07;8.65;;;4.82;;
1154;SDS011;566;48.414;9.118;2023-04-06T14:48:33;6.97;;;4.70;;
1154;SDS011;566;48.414;9.118;2023-04-06T14:51:00;8.43;;;4.93;;
1154;SDS011;566;48.414;9.118;2023-04-06T14:53:25;7.72;;;4.88;;
1154;SDS011;566;48.414;9.118;2023-04-06T14:55:52;10.52;;;4.30;;
1154;SDS011;566;48.414;9.118;2023-04-06T14:58:19;8.98;;;4.72;;
1154;SDS011;566;48.414;9.118;2023-04-06T15:00:45;12.00;;;4.93;;
1154;SDS011;566;48.414;9.118;2023-04-06T15:03:11;7.60;;;4.75;;
1154;SDS011;566;48.414;9.118;2023-04-06T15:05:37;6.95;;;4.47;;
1154;SDS011;566;48.414;9.118;2023-04-06T15:08:02;7.55;;;4.28;;
1154;SDS011;566;48.414;9.118;2023-04-06T15:10:30;8.05;;;4.60;;
1154;SDS011;566;48.414;9.118;2023-04-06T15:12:59;8.15;;;4.70;;
1154;SDS011;566;48.414;9.118;2023-04-06T15:15:25;10.05;;;5.03;;
1154;SDS011;566;48.414;9.118;2023-04-06T15:17:51;9.18;;;4.60;;
1154;SDS011;566;48.414;9.118;2023-04-06T15:20:17;7.75;;;4.80;;
1154;SDS011;566;48.414;9.118;2023-04-06T15:22:42;7.82;;;4.90;;
1154;SDS011;566;48.414;9.118;2023-04-06T15:25:11;9.93;;;4.90;;
1154;SDS011;566;48.414;9.118;2023-04-06T15:27:36;6.53;;;4.15;;